createdAt,value
2018-05-08T00:01:53.683Z,101380.78
2018-05-08T00:04:21.786Z,101376.44
2018-05-08T00:06:49.871Z,101371.92
2018-05-08T00:09:23.571Z,101373.07
2018-05-08T00:11:57.155Z,101365.61
2018-05-08T00:14:25.245Z,101362.45
2018-05-08T00:16:53.331Z,101360.11
2018-05-08T00:19:21.445Z,101358.78
2018-05-08T00:21:49.528Z,101353.80
2018-05-08T00:24:17.659Z,101350.47
2018-05-08T00:26:46.551Z,101350.71
2018-05-08T00:29:14.643Z,101352.10
2018-05-08T00:31:42.814Z,101340.95
2018-05-08T00:34:10.911Z,101350.29
2018-05-08T00:36:39.775Z,101342.48
2018-05-08T00:39:07.979Z,101338.14
2018-05-08T00:41:36.046Z,101333.70
2018-05-08T00:44:04.131Z,101332.20
2018-05-08T00:46:32.215Z,101330.31
2018-05-08T00:49:00.315Z,101328.63
2018-05-08T00:51:28.397Z,101325.55
2018-05-08T00:53:56.491Z,101326.33
2018-05-08T00:56:25.415Z,101322.19
2018-05-08T00:58:53.504Z,101312.88
2018-05-08T01:01:21.630Z,101312.67
2018-05-08T01:03:50.199Z,101312.48
2018-05-08T01:06:18.283Z,101304.35
2018-05-08T01:08:46.368Z,101305.41
2018-05-08T01:11:15.181Z,101300.27
2018-05-08T01:13:43.270Z,101301.57
2018-05-08T01:16:11.355Z,101303.68
2018-05-08T01:18:39.461Z,101298.77
2018-05-08T01:21:07.530Z,101300.05
2018-05-08T01:23:35.624Z,101295.52
2018-05-08T01:26:03.723Z,101299.02
2018-05-08T01:28:31.803Z,101300.09
2018-05-08T01:30:59.893Z,101296.03
2018-05-08T01:33:28.024Z,101299.38
2018-05-08T01:35:56.165Z,101302.91
2018-05-08T01:38:24.239Z,101300.44
2018-05-08T01:40:52.395Z,101292.90
2018-05-08T01:43:20.539Z,101294.45
2018-05-08T01:45:48.567Z,101291.16
2018-05-08T01:48:17.395Z,101282.44
2018-05-08T02:03:45.505Z,101267.44
2018-05-08T02:06:13.578Z,101264.10
2018-05-08T02:08:44.693Z,101263.59
2018-05-08T02:11:12.790Z,101260.34
2018-05-08T02:13:40.929Z,101258.86
2018-05-08T02:16:09.020Z,101253.31
2018-05-08T02:18:37.101Z,101254.60
2018-05-08T02:21:05.192Z,101248.50
2018-05-08T02:23:33.625Z,101243.63
2018-05-08T02:26:01.704Z,101238.97
2018-05-08T02:28:29.791Z,101237.92
2018-05-08T02:30:57.901Z,101234.84
2018-05-08T02:33:26.326Z,101235.33
2018-05-08T02:35:54.488Z,101238.35
2018-05-08T02:38:22.570Z,101233.00
2018-05-08T02:40:50.665Z,101229.05
2018-05-08T02:43:18.770Z,101235.01
2018-05-08T02:45:46.874Z,101227.25
2018-05-08T02:48:15.020Z,101233.34
2018-05-08T02:50:43.116Z,101232.69
2018-05-08T02:53:11.211Z,101225.47
2018-05-08T02:55:39.287Z,101227.16
2018-05-08T02:58:07.386Z,101225.16
2018-05-08T03:00:35.784Z,101231.88
2018-05-08T03:03:03.872Z,101230.16
2018-05-08T03:05:31.986Z,101224.95
2018-05-08T03:08:00.074Z,101227.94
2018-05-08T03:10:28.760Z,101228.41
2018-05-08T03:12:56.852Z,101230.39
2018-05-08T03:15:24.941Z,101219.66
2018-05-08T03:17:53.041Z,101223.56
2018-05-08T03:20:21.123Z,101220.23
2018-05-08T03:22:49.199Z,101220.47
2018-05-08T03:25:17.316Z,101217.56
2018-05-08T03:27:45.409Z,101219.30
2018-05-08T03:30:14.292Z,101218.75
2018-05-08T03:32:42.476Z,101219.97
2018-05-08T03:35:11.156Z,101218.14
2018-05-08T03:37:40.248Z,101225.47
2018-05-08T03:40:08.359Z,101218.80
2018-05-08T03:42:37.243Z,101217.13
2018-05-08T03:45:05.375Z,101214.45
2018-05-08T03:47:33.468Z,101216.63
2018-05-08T03:50:01.563Z,101214.95
2018-05-08T03:52:29.667Z,101218.83
2018-05-08T03:54:58.856Z,101211.06
2018-05-08T03:57:27.709Z,101207.66
2018-05-08T03:59:55.776Z,101203.16
2018-05-08T04:15:23.914Z,101195.03
2018-05-08T04:17:52.022Z,101194.08
2018-05-08T04:20:21.470Z,101190.79
2018-05-08T04:22:50.315Z,101194.83
2018-05-08T04:25:20.376Z,101189.70
2018-05-08T04:27:48.728Z,101197.40
2018-05-08T04:30:16.901Z,101190.16
2018-05-08T04:32:44.996Z,101188.28
2018-05-08T04:35:13.088Z,101186.66
2018-05-08T04:37:41.206Z,101183.53
2018-05-08T04:40:09.290Z,101187.04
2018-05-08T04:42:37.383Z,101187.05
2018-05-08T04:45:05.504Z,101184.58
2018-05-08T04:47:33.576Z,101185.09
2018-05-08T04:50:01.666Z,101181.64
2018-05-08T04:52:29.808Z,101181.56
2018-05-08T04:54:57.912Z,101179.80
2018-05-08T04:57:26.120Z,101181.34
2018-05-08T04:59:59.852Z,101175.17
2018-05-08T05:02:27.961Z,101176.96
2018-05-08T05:04:56.048Z,101179.48
2018-05-08T05:07:24.168Z,101174.06
2018-05-08T05:09:52.248Z,101173.56
2018-05-08T05:12:20.354Z,101180.44
2018-05-08T05:14:48.451Z,101176.06
2018-05-08T05:17:16.612Z,101178.33
2018-05-08T05:19:44.716Z,101174.92
2018-05-08T05:22:12.898Z,101182.22
2018-05-08T05:24:40.997Z,101176.42
2018-05-08T05:27:14.602Z,101179.95
2018-05-08T05:29:48.122Z,101176.63
2018-05-08T05:32:16.238Z,101180.06
2018-05-08T05:34:45.125Z,101185.57
2018-05-08T05:37:13.231Z,101178.17
2018-05-08T05:39:42.363Z,101176.73
2018-05-08T05:42:10.458Z,101172.37
2018-05-08T05:44:44.011Z,101173.77
2018-05-08T05:47:12.122Z,101170.75
2018-05-08T05:49:40.222Z,101173.47
2018-05-08T05:52:08.340Z,101182.03
2018-05-08T05:54:41.413Z,101174.75
2018-05-08T05:57:09.789Z,101178.00
2018-05-08T05:59:38.799Z,101177.69
2018-05-08T06:02:06.915Z,101171.18
2018-05-08T06:04:35.003Z,101175.36
2018-05-08T06:07:03.118Z,101171.53
2018-05-08T06:09:31.231Z,101177.46
2018-05-08T06:11:59.372Z,101175.09
2018-05-08T06:14:27.472Z,101175.80
2018-05-08T06:16:55.624Z,101171.17
2018-05-08T06:19:24.487Z,101170.75
2018-05-08T06:21:52.600Z,101162.91
2018-05-08T06:24:22.068Z,101158.34
2018-05-08T06:26:50.185Z,101164.58
2018-05-08T06:29:18.331Z,101158.56
2018-05-08T06:31:46.444Z,101156.45
2018-05-08T06:34:14.852Z,101156.73
2018-05-08T06:36:48.504Z,101154.31
2018-05-08T06:39:22.698Z,101147.43
2018-05-08T06:41:50.733Z,101150.62
2018-05-08T06:44:18.889Z,101153.75
2018-05-08T06:46:47.770Z,101154.12
2018-05-08T06:49:15.787Z,101147.59
2018-05-08T06:51:43.879Z,101141.05
2018-05-08T06:54:12.971Z,101144.88
2018-05-08T06:56:41.079Z,101142.59
2018-05-08T06:59:09.167Z,101137.20
2018-05-08T07:01:37.264Z,101132.35
2018-05-08T07:04:05.380Z,101129.71
2018-05-08T07:06:33.499Z,101140.05
2018-05-08T07:09:01.608Z,101132.84
2018-05-08T07:11:29.751Z,101130.35
2018-05-08T07:13:57.883Z,101130.23
2018-05-08T07:16:31.582Z,101124.05
2018-05-08T07:28:45.261Z,101131.64
2018-05-08T07:31:13.353Z,101130.05
2018-05-08T07:33:41.546Z,101127.33
2018-05-08T07:36:09.624Z,101123.66
2018-05-08T07:38:37.725Z,101126.78
2018-05-08T07:41:05.899Z,101120.36
2018-05-08T07:43:34.010Z,101123.70
2018-05-08T07:46:02.461Z,101120.02
2018-05-08T07:48:30.559Z,101123.80
2018-05-08T07:50:58.687Z,101125.53
2018-05-08T07:53:27.584Z,101118.30
2018-05-08T07:55:55.684Z,101116.66
2018-05-08T07:58:24.622Z,101115.95
2018-05-08T08:00:52.775Z,101115.02
2018-05-08T08:03:20.907Z,101113.64
2018-05-08T08:05:48.975Z,101116.80
2018-05-08T08:08:17.428Z,101119.84
2018-05-08T08:10:45.564Z,101116.41
2018-05-08T08:13:19.207Z,101113.19
2018-05-08T08:15:47.683Z,101106.48
2018-05-08T08:18:15.854Z,101107.36
2018-05-08T08:20:43.959Z,101102.55
2018-05-08T08:23:12.068Z,101107.08
2018-05-08T08:25:40.164Z,101101.89
2018-05-08T08:28:08.346Z,101099.67
2018-05-08T08:30:36.447Z,101096.62
2018-05-08T08:33:04.553Z,101089.92
2018-05-08T08:35:32.790Z,101096.07
2018-05-08T08:38:00.820Z,101091.55
2018-05-08T08:40:28.911Z,101089.76
2018-05-08T08:42:57.347Z,101088.61
2018-05-08T08:45:25.479Z,101085.36
2018-05-08T08:47:53.646Z,101086.06
2018-05-08T08:50:21.717Z,101078.81
2018-05-08T08:52:49.837Z,101081.55
2018-05-08T08:55:17.943Z,101084.23
2018-05-08T08:57:46.047Z,101076.89
2018-05-08T09:00:14.229Z,101075.74
2018-05-08T09:02:42.322Z,101074.73
2018-05-08T09:05:10.418Z,101074.27
2018-05-08T09:07:38.532Z,101066.52
2018-05-08T09:10:06.630Z,101072.14
2018-05-08T09:12:34.804Z,101070.72
2018-05-08T09:15:02.896Z,101059.53
2018-05-08T09:17:31.044Z,101054.80
2018-05-08T09:19:59.124Z,101058.16
2018-05-08T09:22:27.228Z,101053.54
2018-05-08T09:24:55.314Z,101055.18
2018-05-08T09:27:23.471Z,101053.97
2018-05-08T09:29:51.545Z,101054.52
2018-05-08T09:32:25.104Z,101052.84
2018-05-08T09:34:53.204Z,101045.73
2018-05-08T09:37:26.889Z,101049.74
2018-05-08T09:39:55.060Z,101040.53
2018-05-08T09:42:23.184Z,101036.13
2018-05-08T09:44:51.295Z,101037.19
2018-05-08T09:47:19.400Z,101031.27
2018-05-08T09:49:47.488Z,101032.15
2018-05-08T09:52:15.584Z,101025.41
2018-05-08T09:54:44.188Z,101025.81
2018-05-08T09:57:12.320Z,101026.27
2018-05-08T09:59:41.008Z,101023.55
2018-05-08T10:02:09.186Z,101022.94
2018-05-08T10:04:37.279Z,101014.50
2018-05-08T10:07:05.368Z,101009.61
2018-05-08T10:09:33.458Z,101011.06
2018-05-08T10:12:01.895Z,101007.83
2018-05-08T10:14:30.135Z,101003.70
2018-05-08T10:16:58.239Z,101002.41
2018-05-08T10:19:26.450Z,101000.88
2018-05-08T10:21:54.508Z,100995.18
2018-05-08T10:24:23.303Z,100999.83
2018-05-08T10:26:51.412Z,100993.27
2018-05-08T10:29:19.540Z,100990.37
2018-05-08T10:31:47.630Z,100992.06
2018-05-08T10:47:15.834Z,100972.23
2018-05-08T10:49:44.066Z,100962.25
2018-05-08T10:52:13.151Z,100965.59
2018-05-08T10:54:41.254Z,100964.94
2018-05-08T10:57:09.438Z,100959.06
2018-05-08T10:59:37.542Z,100959.78
2018-05-08T11:02:05.683Z,100951.38
2018-05-08T11:04:33.800Z,100950.69
2018-05-08T11:07:01.991Z,100951.03
2018-05-08T11:09:30.108Z,100943.89
2018-05-08T11:11:58.208Z,100944.84
2018-05-08T11:14:26.320Z,100951.58
2018-05-08T11:16:54.414Z,100943.52
2018-05-08T11:19:22.509Z,100939.30
2018-05-08T11:21:50.666Z,100936.62
2018-05-08T11:24:18.764Z,100926.19
2018-05-08T11:26:46.975Z,100920.09
2018-05-08T11:29:15.027Z,100918.24
2018-05-08T11:31:43.102Z,100915.55
2018-05-08T11:34:11.286Z,100919.66
2018-05-08T11:36:39.376Z,100907.22
2018-05-08T11:39:07.462Z,100907.23
2018-05-08T11:41:35.586Z,100905.27
2018-05-08T11:44:03.687Z,100907.84
2018-05-08T11:46:31.774Z,100903.88
2018-05-08T11:48:59.923Z,100899.53
2018-05-08T11:51:28.014Z,100901.68
2018-05-08T11:53:56.997Z,100906.31
2018-05-08T11:56:25.125Z,100904.52
2018-05-08T11:58:53.222Z,100901.87
2018-05-08T12:01:22.261Z,100902.11
2018-05-08T12:03:50.443Z,100893.39
2018-05-08T12:06:19.196Z,100887.46
2018-05-08T12:08:47.288Z,100884.48
2018-05-08T12:11:16.301Z,100889.63
2018-05-08T12:13:44.403Z,100885.00
2018-05-08T12:16:12.514Z,100881.48
2018-05-08T12:18:41.300Z,100880.13
2018-05-08T12:21:09.704Z,100883.83
2018-05-08T12:23:38.717Z,100876.04
2018-05-08T12:26:09.535Z,100873.72
2018-05-08T12:41:37.707Z,100863.01
2018-05-08T12:44:09.356Z,100850.77
2018-05-08T12:46:37.463Z,100852.39
2018-05-08T12:49:05.543Z,100850.47
2018-05-08T12:51:34.321Z,100842.02
2018-05-08T12:54:05.343Z,100847.48
2018-05-08T12:56:39.098Z,100838.73
2018-05-08T12:59:08.069Z,100832.33
2018-05-08T13:01:36.807Z,100845.09
2018-05-08T13:04:04.936Z,100844.61
2018-05-08T13:06:33.119Z,100841.06
2018-05-08T13:09:01.208Z,100833.59
2018-05-08T13:11:30.151Z,100843.05
2018-05-08T13:13:58.309Z,100834.27
2018-05-08T13:16:26.442Z,100836.50
2018-05-08T13:18:55.137Z,100826.98
2018-05-08T13:21:28.856Z,100828.97
2018-05-08T13:24:02.493Z,100815.48
2018-05-08T13:26:31.006Z,100816.45
2018-05-08T13:28:59.432Z,100813.58
2018-05-08T13:31:27.488Z,100816.87
2018-05-08T13:33:55.606Z,100817.28
2018-05-08T13:36:23.733Z,100805.91
2018-05-08T13:38:51.868Z,100806.16
2018-05-08T13:41:20.104Z,100809.93
2018-05-08T13:43:48.193Z,100807.34
2018-05-08T13:46:16.340Z,100795.13
2018-05-08T13:48:44.453Z,100797.33
2018-05-08T13:51:18.164Z,100800.14
2018-05-08T13:53:46.309Z,100798.68
2018-05-08T13:56:15.231Z,100796.24
2018-05-08T13:58:43.924Z,100795.89
2018-05-08T14:01:12.008Z,100787.11
2018-05-08T14:03:40.167Z,100779.22
2018-05-08T14:06:08.271Z,100779.82
2018-05-08T14:08:36.376Z,100781.55
2018-05-08T14:11:04.541Z,100775.54
2018-05-08T14:13:33.403Z,100767.05
2018-05-08T14:16:01.511Z,100769.13
2018-05-08T14:18:29.602Z,100774.38
2018-05-08T14:20:57.698Z,100764.66
2018-05-08T14:23:25.795Z,100767.69
2018-05-08T14:25:53.879Z,100762.83
2018-05-08T14:28:22.441Z,100756.42
2018-05-08T14:30:50.581Z,100760.75
2018-05-08T14:33:18.666Z,100761.95
2018-05-08T14:35:46.797Z,100756.70
2018-05-08T14:38:14.888Z,100755.97
2018-05-08T14:40:44.489Z,100752.13
2018-05-08T14:43:12.579Z,100748.16
2018-05-08T14:45:41.676Z,100743.44
2018-05-08T14:48:10.725Z,100745.92
2018-05-08T14:50:38.825Z,100743.01
2018-05-08T14:53:06.903Z,100749.23
2018-05-08T14:55:35.034Z,100747.70
2018-05-08T14:58:03.172Z,100747.27
2018-05-08T15:00:31.295Z,100745.49
2018-05-08T15:02:59.378Z,100746.69
2018-05-08T15:05:27.477Z,100744.23
2018-05-08T15:07:55.556Z,100740.41
2018-05-08T15:10:23.675Z,100738.34
2018-05-08T15:12:52.297Z,100737.12
2018-05-08T15:15:20.403Z,100744.36
2018-05-08T15:17:48.515Z,100746.92
2018-05-08T15:20:16.627Z,100745.78
2018-05-08T15:22:44.921Z,100738.22
2018-05-08T15:25:13.130Z,100739.06
2018-05-08T15:27:41.191Z,100737.38
2018-05-08T15:30:09.285Z,100738.40
2018-05-08T15:32:37.409Z,100738.09
2018-05-08T15:35:05.730Z,100731.75
2018-05-08T15:37:39.653Z,100730.91
2018-05-08T15:40:13.294Z,100724.51
2018-05-08T15:42:41.385Z,100721.00
2018-05-08T15:45:09.470Z,100721.89
2018-05-08T15:47:37.595Z,100719.81
2018-05-08T15:50:05.728Z,100720.77
2018-05-08T15:52:34.169Z,100714.78
2018-05-08T15:55:02.315Z,100710.84
2018-05-08T15:57:30.448Z,100708.61
2018-05-08T15:59:59.187Z,100705.02
2018-05-08T16:02:27.387Z,100702.65
2018-05-08T16:04:55.475Z,100700.88
2018-05-08T16:07:24.107Z,100710.22
2018-05-08T16:09:53.318Z,100712.95
2018-05-08T16:12:21.513Z,100708.99
2018-05-08T16:14:49.867Z,100711.59
2018-05-08T16:17:18.049Z,100707.86
2018-05-08T16:19:46.183Z,100706.12
2018-05-08T16:22:14.813Z,100706.12
2018-05-08T16:24:43.718Z,100700.56
2018-05-08T16:27:11.827Z,100702.59
2018-05-08T16:42:39.960Z,100696.07
2018-05-08T16:45:08.405Z,100700.86
2018-05-08T16:47:36.483Z,100699.22
2018-05-08T16:50:04.607Z,100696.86
2018-05-08T16:52:32.804Z,100703.20
2018-05-08T16:55:00.921Z,100700.47
2018-05-08T16:57:29.359Z,100705.44
2018-05-08T16:59:57.471Z,100700.88
2018-05-08T17:02:25.596Z,100703.80
2018-05-08T17:04:53.764Z,100703.70
2018-05-08T17:07:21.904Z,100697.78
2018-05-08T17:09:50.044Z,100698.18
2018-05-08T17:12:18.155Z,100701.00
2018-05-08T17:14:46.256Z,100699.13
2018-05-08T17:17:15.449Z,100692.62
2018-05-08T17:19:44.505Z,100701.31
2018-05-08T17:22:12.602Z,100692.38
2018-05-08T17:24:40.710Z,100701.03
2018-05-08T17:27:08.812Z,100702.58
2018-05-08T17:29:36.912Z,100700.75
2018-05-08T17:45:06.005Z,100715.70
2018-05-08T17:47:34.676Z,100711.61
2018-05-08T17:50:03.519Z,100710.48
2018-05-08T17:52:32.445Z,100705.88
2018-05-08T17:55:01.250Z,100712.16
2018-05-08T18:10:30.290Z,100715.23
2018-05-08T18:12:58.425Z,100715.50
2018-05-08T18:15:26.608Z,100723.03
2018-05-08T18:18:00.764Z,100722.36
2018-05-08T18:20:29.975Z,100726.71
2018-05-08T18:22:58.124Z,100722.96
2018-05-08T18:25:26.265Z,100723.66
2018-05-08T18:27:55.064Z,100725.47
2018-05-08T18:30:23.226Z,100723.22
2018-05-08T18:32:51.392Z,100723.84
2018-05-08T18:35:19.493Z,100723.69
2018-05-08T18:37:47.609Z,100734.30
2018-05-08T18:40:15.735Z,100737.56
2018-05-08T18:42:44.445Z,100735.27
2018-05-08T18:45:13.187Z,100734.48
2018-05-08T18:47:41.273Z,100741.08
2018-05-08T18:50:09.420Z,100737.92
2018-05-08T18:52:37.555Z,100741.27
2018-05-08T18:55:05.680Z,100740.39
2018-05-08T18:57:33.908Z,100740.92
2018-05-08T19:00:07.860Z,100737.81
2018-05-08T19:02:41.381Z,100746.13
2018-05-08T19:05:09.515Z,100746.16
2018-05-08T19:07:37.639Z,100746.01
2018-05-08T19:10:05.803Z,100754.12
2018-05-08T19:12:35.493Z,100748.49
2018-05-08T19:15:09.323Z,100752.30
2018-05-08T19:17:37.395Z,100751.62
2018-05-08T19:22:38.589Z,100751.26
2018-05-08T19:25:06.706Z,100761.00
2018-05-08T19:27:34.803Z,100757.42
2018-05-08T19:30:08.384Z,100763.09
2018-05-08T19:32:36.483Z,100756.63
2018-05-08T19:35:11.273Z,100764.86
2018-05-08T19:37:45.096Z,100767.17
2018-05-08T19:40:13.245Z,100768.75
2018-05-08T19:42:41.392Z,100767.47
2018-05-08T19:45:09.845Z,100772.80
2018-05-08T19:47:38.337Z,100770.89
2018-05-08T19:50:06.707Z,100771.86
2018-05-08T19:52:34.872Z,100775.18
2018-05-08T19:55:02.916Z,100777.98
2018-05-08T19:57:31.027Z,100768.28
2018-05-08T19:59:59.216Z,100767.70
2018-05-08T20:02:27.305Z,100769.73
2018-05-08T20:04:55.400Z,100771.32
2018-05-08T20:07:23.532Z,100764.02
2018-05-08T20:09:51.628Z,100766.02
2018-05-08T20:12:19.775Z,100768.86
2018-05-08T20:14:47.870Z,100773.78
2018-05-08T20:17:15.956Z,100772.58
2018-05-08T20:19:44.269Z,100774.48
2018-05-08T20:22:12.379Z,100780.36
2018-05-08T20:24:41.288Z,100780.98
2018-05-08T20:27:09.407Z,100782.50
2018-05-08T20:29:37.498Z,100780.55
2018-05-08T20:32:05.598Z,100773.58
2018-05-08T20:34:33.711Z,100773.77
2018-05-08T20:37:02.596Z,100781.48
2018-05-08T20:39:31.330Z,100774.06
2018-05-08T20:41:59.432Z,100774.41
2018-05-08T20:44:27.534Z,100772.80
2018-05-08T20:46:55.652Z,100769.77
2018-05-08T20:49:23.777Z,100777.59
2018-05-08T20:51:57.518Z,100778.03
2018-05-08T20:54:31.090Z,100778.38
2018-05-08T20:56:59.268Z,100775.20
2018-05-08T20:59:27.393Z,100778.08
2018-05-08T21:01:55.497Z,100777.70
2018-05-08T21:04:23.620Z,100773.17
2018-05-08T21:06:52.265Z,100774.66
2018-05-08T21:09:20.419Z,100774.15
2018-05-08T21:11:49.270Z,100772.81
2018-05-08T21:14:17.378Z,100772.78
2018-05-08T21:16:45.495Z,100768.30
2018-05-08T21:19:13.614Z,100772.84
2018-05-08T21:21:41.717Z,100777.30
2018-05-08T21:24:09.835Z,100771.64
2018-05-08T21:26:37.955Z,100769.97
2018-05-08T21:29:06.093Z,100769.17
2018-05-08T21:31:34.961Z,100770.81
2018-05-08T21:34:03.062Z,100760.06
2018-05-08T21:36:31.161Z,100765.38
2018-05-08T21:38:59.262Z,100769.08
2018-05-08T21:41:28.194Z,100765.55
2018-05-08T21:43:56.805Z,100766.30
2018-05-08T21:46:24.898Z,100764.20
2018-05-08T21:48:53.000Z,100764.62
2018-05-08T21:51:21.918Z,100756.63
2018-05-08T21:53:50.014Z,100760.05
2018-05-08T21:56:18.164Z,100759.20
2018-05-08T21:58:46.252Z,100758.14
2018-05-08T22:01:14.352Z,100758.08
2018-05-08T22:03:42.456Z,100758.12
2018-05-08T22:06:10.550Z,100757.68
2018-05-08T22:08:38.647Z,100751.87
2018-05-08T22:11:06.749Z,100756.63
2018-05-08T22:13:35.667Z,100754.03
2018-05-08T22:16:03.791Z,100754.22
2018-05-08T22:18:31.889Z,100748.38
2018-05-08T22:20:59.991Z,100753.55
2018-05-08T22:23:28.383Z,100746.42
2018-05-08T22:25:56.470Z,100750.84
2018-05-08T22:28:30.111Z,100750.08
2018-05-08T22:30:58.239Z,100748.22
2018-05-08T22:33:26.327Z,100746.40
2018-05-08T22:35:54.489Z,100741.41
2018-05-08T22:38:22.571Z,100732.84
2018-05-08T22:40:51.407Z,100735.23
2018-05-08T22:43:19.555Z,100732.83
2018-05-08T22:45:47.674Z,100733.50
2018-05-08T22:48:15.767Z,100732.33
2018-05-08T22:50:43.864Z,100737.36
2018-05-08T22:53:11.968Z,100731.97
2018-05-08T22:55:40.059Z,100729.64
2018-05-08T22:58:08.217Z,100734.06
2018-05-08T23:00:36.813Z,100721.47
2018-05-08T23:03:04.947Z,100723.85
2018-05-08T23:05:33.061Z,100720.15
2018-05-08T23:08:01.151Z,100718.77
2018-05-08T23:10:29.249Z,100718.36
2018-05-08T23:12:57.343Z,100719.50
2018-05-08T23:15:25.439Z,100724.06
2018-05-08T23:17:53.587Z,100720.41
2018-05-08T23:20:21.683Z,100719.44
2018-05-08T23:22:49.815Z,100719.61
2018-05-08T23:25:17.932Z,100720.62
2018-05-08T23:27:46.179Z,100715.45
2018-05-08T23:30:14.283Z,100711.27
2018-05-08T23:32:42.731Z,100710.07
2018-05-08T23:35:11.701Z,100707.75
2018-05-08T23:37:40.272Z,100702.68
2018-05-08T23:40:08.373Z,100708.59
2018-05-08T23:42:36.472Z,100702.28
2018-05-08T23:45:04.564Z,100702.17
2018-05-08T23:47:32.663Z,100696.11
2018-05-08T23:50:00.777Z,100701.96
2018-05-08T23:52:28.897Z,100696.25
2018-05-08T23:54:57.327Z,100695.42
2018-05-08T23:57:25.432Z,100697.60
2018-05-08T23:59:54.256Z,100690.44
